Time;durP1;ratioP1;P1;durP2;ratioP2;P2;SDS_P1;SDS_P2;PMS_P1;PMS_P2;Temp;Humidity;BMP_temperature;BMP_pressure;BME280_temperature;BME280_humidity;BME280_pressure;Samples;Min_cycle;Max_cycle;Signal;HPM_P1;HPM_P2
2022/04/07 05:13:16;;;;;;;42.05;31.83;;;10.50;89.20;;;;;;4892077;27;20076;-72
2022/04/07 05:15:41;;;;;;;44.47;32.70;;;10.50;89.00;;;;;;4916942;29;20528;-79
2022/04/07 05:18:07;;;;;;;44.22;31.17;;;10.50;89.00;;;;;;4915851;29;20493;-78
2022/04/07 05:20:37;;;;;;;39.63;30.73;;;10.60;88.50;;;;;;4896138;29;20067;-74
2022/04/07 05:23:03;;;;;;;41.63;34.50;;;10.70;87.90;;;;;;4915183;29;20127;-78
2022/04/07 05:25:29;;;;;;;42.05;34.10;;;10.60;88.00;;;;;;4903907;29;20143;-71
2022/04/07 05:27:55;;;;;;;49.05;33.97;;;10.60;88.10;;;;;;4909971;29;20462;-71
2022/04/07 05:30:21;;;;;;;43.70;33.60;;;10.60;87.90;;;;;;4911028;29;20043;-70
2022/04/07 05:32:46;;;;;;;43.10;35.25;;;10.70;87.80;;;;;;4913618;29;20393;-71
2022/04/07 05:35:15;;;;;;;41.97;35.65;;;10.70;87.80;;;;;;4916232;29;20040;-76
2022/04/07 05:37:41;;;;;;;46.78;35.08;;;10.70;88.60;;;;;;4914306;29;20036;-71
2022/04/07 05:40:11;;;;;;;59.58;38.72;;;10.70;88.00;;;;;;4906351;29;20123;-71
2022/04/07 05:42:37;;;;;;;47.53;37.17;;;10.70;87.70;;;;;;4906836;29;20143;-81
2022/04/07 05:45:04;;;;;;;44.97;37.05;;;10.70;87.70;;;;;;4906475;29;20036;-71
2022/04/07 05:47:30;;;;;;;50.88;37.85;;;10.80;87.50;;;;;;4897886;29;20036;-72
2022/04/07 05:49:56;;;;;;;50.67;36.58;;;10.70;87.40;;;;;;4908880;29;20048;-73
2022/04/07 05:52:22;;;;;;;69.25;39.13;;;10.80;87.80;;;;;;4913139;29;20064;-74
2022/04/07 05:54:48;;;;;;;48.03;36.90;;;10.80;87.40;;;;;;4914834;29;20044;-73
2022/04/07 05:57:32;;;;;;;48.88;35.67;;;10.90;87.70;;;;;;4908525;29;22259;-73
2022/04/07 06:00:19;;;;;;;56.85;41.05;;;11.00;87.30;;;;;;4911071;29;20367;-73
2022/04/07 06:02:47;;;;;;;45.95;36.65;;;11.00;86.90;;;;;;4912663;29;20105;-73
2022/04/07 06:05:18;;;;;;;50.00;37.30;;;11.00;87.10;;;;;;4916897;29;20035;-73
2022/04/07 06:07:44;;;;;;;51.00;38.38;;;11.10;87.40;;;;;;4935516;29;20025;-73
2022/04/07 06:10:10;;;;;;;49.30;39.00;;;11.10;86.80;;;;;;4915486;29;20044;-72
2022/04/07 06:12:36;;;;;;;46.67;37.83;;;11.10;86.40;;;;;;4916704;29;20174;-72
2022/04/07 06:15:01;;;;;;;48.97;38.75;;;11.10;86.60;;;;;;4912945;29;20557;-72
2022/04/07 06:17:56;;;;;;;53.58;40.58;;;11.20;87.10;;;;;;4915257;29;20028;-73
2022/04/07 06:20:22;;;;;;;47.78;36.17;;;11.20;86.80;;;;;;4913200;29;20083;-73
2022/04/07 06:22:48;;;;;;;47.55;37.72;;;11.30;86.50;;;;;;4897527;29;20032;-72
2022/04/07 06:25:14;;;;;;;51.80;40.60;;;11.20;86.70;;;;;;4897799;29;20040;-72
2022/04/07 06:27:44;;;;;;;45.97;35.53;;;11.20;86.60;;;;;;4897787;29;20112;-72
2022/04/07 06:30:15;;;;;;;54.13;40.53;;;11.20;86.90;;;;;;4897719;29;20501;-72
2022/04/07 06:32:40;;;;;;;;;;;11.30;86.90;;;;;;4908746;29;20500;-72
2022/04/07 06:35:08;;;;;;;48.50;36.35;;;11.30;86.70;;;;;;4916017;29;19918;-72
2022/04/07 06:37:54;;;;;;;47.95;35.53;;;11.40;87.00;;;;;;4916998;29;20556;-72
2022/04/07 06:40:25;;;;;;;44.40;33.55;;;11.50;86.80;;;;;;4906842;29;20128;-72
2022/04/07 06:42:54;;;;;;;42.92;34.25;;;11.60;86.50;;;;;;4908610;29;20512;-72
2022/04/07 06:45:21;;;;;;;48.28;33.88;;;11.60;86.40;;;;;;4917404;29;20050;-73
2022/04/07 06:47:47;;;;;;;50.22;34.40;;;11.70;86.30;;;;;;4930931;29;20043;-72
2022/04/07 06:50:16;;;;;;;26.95;22.88;;;11.80;86.30;;;;;;4923763;29;20516;-93
2022/04/07 06:52:42;;;;;;;43.30;33.88;;;12.00;86.70;;;;;;4903381;29;20123;-71
2022/04/07 06:55:09;;;;;;;47.25;36.88;;;12.10;85.10;;;;;;4915796;29;20064;-70
2022/04/07 06:57:56;;;;;;;48.63;36.80;;;12.10;85.00;;;;;;4916618;29;20088;-69
2022/04/07 07:00:27;;;;;;;42.42;34.88;;;12.10;85.20;;;;;;4914095;29;20036;-70
2022/04/07 07:02:54;;;;;;;44.22;35.15;;;12.10;85.30;;;;;;4910566;29;20064;-70
2022/04/07 07:05:22;;;;;;;41.08;32.22;;;12.20;85.10;;;;;;4915188;29;20440;-69
2022/04/07 07:07:48;;;;;;;43.10;31.45;;;12.20;85.60;;;;;;4916053;29;20028;-69
2022/04/07 07:10:22;;;;;;;44.20;34.78;;;12.30;85.90;;;;;;4917281;29;20111;-70
2022/04/07 07:12:52;;;;;;;39.90;30.98;;;12.50;85.30;;;;;;4922064;29;20039;-70
2022/04/07 07:15:21;;;;;;;42.80;31.63;;;12.60;84.50;;;;;;4915551;29;20104;-70
2022/04/07 07:17:47;;;;;;;45.97;35.47;;;12.70;83.80;;;;;;4901201;29;20756;-70
2022/04/07 07:20:13;;;;;;;53.38;36.80;;;12.70;84.10;;;;;;4908901;29;20127;-70
2022/04/07 07:22:42;;;;;;;42.33;31.73;;;12.90;84.40;;;;;;4918967;29;20111;-70
2022/04/07 07:25:09;;;;;;;40.97;29.70;;;12.90;82.30;;;;;;4918191;29;20051;-70
2022/04/07 07:27:45;;;;;;;40.47;27.33;;;12.80;82.60;;;;;;4919448;29;20095;-71
2022/04/07 07:30:15;;;;;;;31.50;24.40;;;12.80;82.40;;;;;;4921045;29;20040;-70
2022/04/07 07:32:42;;;;;;;32.95;24.38;;;12.80;82.50;;;;;;4929954;29;20036;-70
2022/04/07 07:35:10;;;;;;;31.83;22.63;;;12.80;83.10;;;;;;4903696;29;20418;-70
2022/04/07 07:37:36;;;;;;;27.48;18.55;;;12.80;82.20;;;;;;4915432;29;20047;-77
2022/04/07 07:40:07;;;;;;;26.90;17.42;;;12.90;82.10;;;;;;4918558;29;20051;-78
2022/04/07 07:42:36;;;;;;;21.90;15.18;;;13.00;82.00;;;;;;4918232;29;20418;-78
2022/04/07 07:45:02;;;;;;;15.73;12.40;;;13.10;81.70;;;;;;4919232;29;20041;-78
2022/04/07 07:47:27;;;;;;;15.38;11.20;;;13.20;81.50;;;;;;4917916;29;20378;-78
2022/04/07 07:49:53;;;;;;;17.08;11.48;;;13.30;80.50;;;;;;4916729;29;20119;-78
2022/04/07 07:52:18;;;;;;;17.80;11.35;;;13.60;80.20;;;;;;4918423;29;20050;-78
2022/04/07 07:54:44;;;;;;;24.60;15.68;;;13.70;79.80;;;;;;4918704;29;20054;-78
2022/04/07 07:57:10;;;;;;;22.85;18.55;;;13.90;80.40;;;;;;4910287;29;20699;-79
2022/04/07 07:59:36;;;;;;;26.02;18.83;;;14.00;79.20;;;;;;4904301;29;20052;-79
2022/04/07 08:02:01;;;;;;;26.83;21.35;;;14.10;79.30;;;;;;4920772;29;20543;-79
2022/04/07 08:04:27;;;;;;;23.98;18.42;;;14.20;78.20;;;;;;4919205;29;20107;-79
2022/04/07 08:06:53;;;;;;;26.42;19.35;;;14.20;77.50;;;;;;4912856;29;20115;-79
2022/04/07 08:09:18;;;;;;;26.40;17.65;;;14.20;76.20;;;;;;4915038;29;20088;-80
2022/04/07 08:11:44;;;;;;;22.55;17.10;;;14.10;76.90;;;;;;4905088;29;20508;-79
2022/04/07 08:14:10;;;;;;;25.67;21.00;;;14.30;76.90;;;;;;4910410;29;20041;-77
2022/04/07 08:16:37;;;;;;;22.38;17.10;;;14.40;76.00;;;;;;4917073;29;20044;-80
2022/04/07 08:19:04;;;;;;;23.55;18.02;;;14.40;76.10;;;;;;4916472;29;20063;-79
2022/04/07 08:21:31;;;;;;;23.17;18.08;;;14.70;75.80;;;;;;4907109;29;20548;-72
2022/04/07 08:23:58;;;;;;;23.08;17.90;;;14.80;74.70;;;;;;4912476;29;20036;-79
2022/04/07 08:26:24;;;;;;;28.75;20.65;;;14.90;73.90;;;;;;4909628;29;20040;-71
2022/04/07 08:28:51;;;;;;;23.42;17.90;;;15.00;72.90;;;;;;4909514;29;20036;-70
2022/04/07 08:31:19;;;;;;;22.08;18.50;;;15.00;72.80;;;;;;4911109;29;20044;-71
2022/04/07 08:33:46;;;;;;;23.08;18.05;;;15.00;72.40;;;;;;4905893;29;20081;-70
2022/04/07 08:36:14;;;;;;;25.88;18.02;;;15.10;72.70;;;;;;4906566;29;20134;-71
2022/04/07 08:38:41;;;;;;;28.05;22.00;;;15.20;72.70;;;;;;4906876;29;20504;-70
2022/04/07 08:41:09;;;;;;;24.67;19.75;;;15.30;71.10;;;;;;4905931;29;20116;-70
2022/04/07 08:43:38;;;;;;;31.20;21.33;;;15.40;71.40;;;;;;4906425;29;20041;-78
2022/04/07 08:46:09;;;;;;;23.65;19.10;;;15.50;71.10;;;;;;4909508;29;20123;-78
2022/04/07 08:48:42;;;;;;;25.20;20.83;;;15.60;70.90;;;;;;4911184;29;20036;-68
2022/04/07 08:51:08;;;;;;;23.85;20.92;;;15.60;70.70;;;;;;4905586;29;20049;-69
2022/04/07 08:53:35;;;;;;;25.05;20.92;;;15.60;69.80;;;;;;4904556;29;20045;-70
2022/04/07 08:56:03;;;;;;;26.90;21.48;;;15.70;70.00;;;;;;4904947;29;20128;-70
2022/04/07 08:58:29;;;;;;;26.52;22.25;;;15.70;68.80;;;;;;4904184;29;20500;-71
2022/04/07 09:00:55;;;;;;;27.50;19.40;;;15.80;68.40;;;;;;4915019;29;20167;-70
2022/04/07 09:03:21;;;;;;;25.30;18.45;;;15.90;70.50;;;;;;4902271;29;20127;-70
2022/04/07 09:06:01;;;;;;;23.00;19.38;;;16.10;70.10;;;;;;4918061;29;20037;-79
2022/04/07 09:08:38;;;;;;;22.48;20.10;;;16.30;69.60;;;;;;4917466;29;20047;-76
2022/04/07 09:11:09;;;;;;;23.65;19.58;;;16.40;67.70;;;;;;4915159;29;20127;-77
2022/04/07 09:13:39;;;;;;;28.75;23.60;;;16.60;67.30;;;;;;4917507;29;20179;-69
2022/04/07 09:16:07;;;;;;;35.90;26.13;;;16.70;66.50;;;;;;4917522;29;20044;-78
2022/04/07 09:18:36;;;;;;;33.05;26.27;;;16.70;65.70;;;;;;4917301;29;20094;-79
2022/04/07 09:21:05;;;;;;;26.05;21.00;;;16.80;65.50;;;;;;4917445;29;20036;-79
2022/04/07 09:23:39;;;;;;;26.93;20.57;;;16.90;66.40;;;;;;4917663;29;20032;-79
2022/04/07 09:26:05;;;;;;;33.58;27.35;;;17.10;66.70;;;;;;4920860;29;20064;-78
2022/04/07 09:28:32;;;;;;;33.10;28.15;;;17.10;64.40;;;;;;4927976;29;20048;-79
2022/04/07 09:30:59;;;;;;;30.38;25.75;;;17.20;64.30;;;;;;4917514;29;20119;-77
2022/04/07 09:33:28;;;;;;;28.08;23.00;;;17.30;64.30;;;;;;4915938;29;20047;-78
2022/04/07 09:36:07;;;;;;;31.65;27.80;;;17.50;64.50;;;;;;4917537;29;20384;-78
2022/04/07 09:38:39;;;;;;;27.92;24.63;;;17.60;63.40;;;;;;4917599;29;20449;-70
2022/04/07 09:41:13;;;;;;;27.10;20.98;;;17.70;64.40;;;;;;4912047;29;20032;-69
2022/04/07 09:43:49;;;;;;;33.70;20.30;;;17.80;66.20;;;;;;4909138;29;20048;-72
2022/04/07 09:46:20;;;;;;;35.92;24.88;;;18.00;65.20;;;;;;4901838;29;20401;-70
2022/04/07 09:49:06;;;;;;;39.92;31.20;;;18.20;64.60;;;;;;4904517;29;20047;-71
2022/04/07 09:51:46;;;;;;;36.53;30.23;;;18.40;62.50;;;;;;4897054;29;20079;-71
2022/04/07 09:54:17;;;;;;;36.80;32.83;;;18.40;61.30;;;;;;4898351;29;20052;-70
2022/04/07 09:56:44;;;;;;;;;;;18.40;61.00;;;;;;4916536;29;20060;-78
2022/04/07 09:59:11;;;;;;;26.05;22.45;;;18.30;62.90;;;;;;4917008;29;19915;-78
2022/04/07 10:01:38;;;;;;;29.45;22.52;;;18.40;63.70;;;;;;4917224;29;20063;-78
2022/04/07 10:04:08;;;;;;;26.38;20.15;;;18.60;64.10;;;;;;4916729;29;20394;-69
2022/04/07 10:06:35;;;;;;;24.38;20.05;;;18.70;63.80;;;;;;4916883;29;20051;-70
2022/04/07 10:09:03;;;;;;;30.00;23.52;;;19.00;63.90;;;;;;4916902;29;20156;-70
2022/04/07 10:11:33;;;;;;;29.65;24.52;;;19.10;62.90;;;;;;4926238;29;20043;-77
2022/04/07 10:14:00;;;;;;;31.30;23.98;;;19.10;62.40;;;;;;4909796;29;20115;-71
2022/04/07 10:16:27;;;;;;;24.10;20.63;;;19.00;62.80;;;;;;4916428;29;20409;-77
2022/04/07 10:19:05;;;;;;;29.70;21.27;;;19.10;63.60;;;;;;4916298;29;20047;-76
2022/04/07 10:22:05;;;;;;;36.03;29.20;;;19.30;63.60;;;;;;4907428;29;20044;-77
2022/04/07 10:24:43;;;;;;;32.53;27.53;;;19.30;60.00;;;;;;4916195;29;20040;-78
2022/04/07 10:27:10;;;;;;;33.75;27.52;;;19.20;60.60;;;;;;4913479;29;20040;-71
2022/04/07 10:29:38;;;;;;;31.27;23.67;;;19.30;60.80;;;;;;4898691;29;20126;-70
2022/04/07 10:32:12;;;;;;;30.10;24.88;;;19.30;61.60;;;;;;4901541;29;20032;-71
2022/04/07 10:34:58;;;;;;;37.35;28.40;;;19.40;61.30;;;;;;4905709;29;20115;-70
2022/04/07 10:37:41;;;;;;;37.88;32.22;;;19.30;60.30;;;;;;4915890;29;20091;-70
2022/04/07 10:40:46;;;;;;;31.85;25.30;;;18.90;60.90;;;;;;4897025;29;20080;-69
2022/04/07 10:43:18;;;;;;;36.22;27.20;;;18.70;62.80;;;;;;4897727;29;20025;-70
2022/04/07 10:46:06;;;;;;;33.55;26.02;;;18.90;62.50;;;;;;4912951;29;20032;-70
2022/04/07 10:49:03;;;;;;;26.20;22.23;;;19.00;62.50;;;;;;4919626;29;20164;-70
2022/04/07 10:51:43;;;;;;;24.33;21.55;;;19.40;62.10;;;;;;4891637;29;20055;-71
2022/04/07 10:54:09;;;;;;;;;;;19.60;62.60;;;;;;4914702;29;20044;-69
2022/04/07 10:56:35;;;;;;;32.40;27.02;;;19.80;61.70;;;;;;4917520;29;19919;-69
2022/04/07 10:59:14;;;;;;;31.08;25.67;;;19.90;59.50;;;;;;4914634;29;20044;-70
2022/04/07 11:01:39;;;;;;;26.30;21.77;;;19.90;61.50;;;;;;4913887;29;20122;-70
2022/04/07 11:05:10;;;;;;;28.88;24.88;;;19.90;61.70;;;;;;4909968;29;20124;-71
2022/04/07 11:07:52;;;;;;;26.10;21.90;;;19.90;60.50;;;;;;4846204;29;20060;-77
2022/04/07 11:10:37;;;;;;;29.80;20.85;;;19.90;61.60;;;;;;4912531;29;20040;-78
2022/04/07 11:13:03;;;;;;;27.95;23.25;;;20.00;63.00;;;;;;4902065;29;20052;-77
2022/04/07 11:15:47;;;;;;;27.30;24.00;;;20.10;60.70;;;;;;4912311;29;20377;-78
2022/04/07 11:18:25;;;;;;;29.85;25.33;;;20.00;61.30;;;;;;4917910;29;20121;-79
2022/04/07 11:21:25;;;;;;;31.02;24.88;;;20.10;60.60;;;;;;4919792;29;20489;-78
2022/04/07 11:23:52;;;;;;;;;;;20.10;60.50;;;;;;4895157;29;20493;-78
2022/04/07 11:26:20;;;;;;;26.70;22.95;;;20.10;59.50;;;;;;4910476;29;19930;-78
2022/04/07 11:29:07;;;;;;;28.45;24.02;;;20.00;61.10;;;;;;4916895;29;20043;-78
2022/04/07 11:31:41;;;;;;;27.60;22.45;;;20.10;61.50;;;;;;4916455;29;20037;-78
2022/04/07 11:35:01;;;;;;;23.92;21.45;;;20.40;60.00;;;;;;4915710;29;20043;-79
2022/04/07 11:37:27;;;;;;;33.17;27.58;;;20.90;59.50;;;;;;4860745;29;20538;-78
2022/04/07 11:39:53;;;;;;;29.67;24.92;;;21.30;57.00;;;;;;4905743;29;20076;-78
2022/04/07 11:42:21;;;;;;;26.80;23.75;;;21.20;56.20;;;;;;4914264;29;20068;-77
2022/04/07 11:44:57;;;;;;;35.70;27.35;;;21.20;57.90;;;;;;4917896;29;20040;-78
2022/04/07 11:47:31;;;;;;;34.13;27.52;;;21.30;56.60;;;;;;4926343;29;20028;-78
2022/04/07 11:49:57;;;;;;;32.65;24.63;;;21.60;56.50;;;;;;4922637;29;20036;-79
2022/04/07 11:52:43;;;;;;;36.20;28.15;;;22.00;57.00;;;;;;4911697;29;20041;-77
2022/04/07 11:55:09;;;;;;;27.38;23.33;;;22.40;55.20;;;;;;4911830;29;20115;-78
2022/04/07 11:57:35;;;;;;;32.92;26.67;;;22.60;54.40;;;;;;4908946;29;20196;-80
2022/04/07 12:00:04;;;;;;;27.60;24.10;;;22.90;54.20;;;;;;4908679;29;20378;-79
2022/04/07 12:02:30;;;;;;;29.73;26.05;;;23.20;54.20;;;;;;4908045;29;20470;-71
2022/04/07 12:05:04;;;;;;;34.20;26.80;;;23.20;53.10;;;;;;4915806;29;20107;-73
2022/04/07 12:07:30;;;;;;;35.97;25.80;;;23.30;51.30;;;;;;4908499;29;20047;-70
2022/04/07 12:10:14;;;;;;;27.45;22.48;;;23.50;52.50;;;;;;4915881;29;20076;-77
2022/04/07 12:12:42;;;;;;;28.88;25.17;;;23.70;52.40;;;;;;4911417;29;20049;-76
2022/04/07 12:15:10;;;;;;;31.35;25.33;;;23.90;51.00;;;;;;4907398;29;20052;-69
2022/04/07 12:17:36;;;;;;;27.67;24.08;;;23.60;50.40;;;;;;4912772;29;20131;-70
2022/04/07 12:20:03;;;;;;;29.95;26.52;;;23.60;51.30;;;;;;4916260;29;20040;-71
2022/04/07 12:22:30;;;;;;;31.38;24.92;;;23.40;50.50;;;;;;4912989;29;20541;-70
2022/04/07 12:25:04;;;;;;;32.30;28.13;;;23.30;50.90;;;;;;4905435;29;20457;-76
2022/04/07 12:27:32;;;;;;;30.25;26.48;;;23.20;49.90;;;;;;4911211;29;20080;-82
2022/04/07 12:29:59;;;;;;;31.88;28.08;;;23.20;51.20;;;;;;4914553;29;20485;-77
2022/04/07 12:32:27;;;;;;;32.40;26.13;;;22.80;49.80;;;;;;4913428;29;20493;-77
2022/04/07 12:34:55;;;;;;;34.78;24.73;;;22.70;50.90;;;;;;4913129;29;20136;-72
2022/04/07 12:37:36;;;;;;;31.30;24.20;;;23.00;51.30;;;;;;4908461;29;20044;-77
2022/04/07 12:40:04;;;;;;;31.40;27.65;;;23.30;51.30;;;;;;4903957;29;20044;-71
2022/04/07 12:42:29;;;;;;;35.88;27.50;;;23.30;50.00;;;;;;4905121;29;20636;-78
2022/04/07 12:45:08;;;;;;;32.22;28.58;;;23.20;50.30;;;;;;4914621;29;20040;-71
2022/04/07 12:47:34;;;;;;;34.63;26.75;;;23.10;50.60;;;;;;4910170;29;20045;-71
2022/04/07 12:50:03;;;;;;;30.67;27.55;;;23.00;50.80;;;;;;4917821;29;20128;-79
2022/04/07 12:52:43;;;;;;;31.23;26.25;;;23.00;49.90;;;;;;4914813;29;20044;-80
2022/04/07 12:55:15;;;;;;;35.35;29.13;;;22.90;51.00;;;;;;4917942;29;20044;-79
2022/04/07 12:57:43;;;;;;;30.13;26.17;;;22.70;50.40;;;;;;4917763;29;20492;-79
2022/04/07 13:00:16;;;;;;;33.63;27.67;;;22.60;51.30;;;;;;4917405;29;20075;-79
2022/04/07 13:02:50;;;;;;;30.40;25.38;;;22.60;52.10;;;;;;4917240;29;20107;-78
2022/04/07 13:05:28;;;;;;;29.50;25.80;;;22.60;52.20;;;;;;4917452;29;20503;-72
2022/04/07 13:07:56;;;;;;;30.85;26.13;;;22.40;52.10;;;;;;4916961;29;20044;-70
2022/04/07 13:10:23;;;;;;;34.15;27.52;;;22.00;52.30;;;;;;4917642;29;20067;-71
2022/04/07 13:12:49;;;;;;;32.78;28.15;;;21.70;53.30;;;;;;4916928;29;20048;-71
2022/04/07 13:15:15;;;;;;;37.97;29.08;;;21.40;53.80;;;;;;4917827;29;20418;-71
2022/04/07 13:17:41;;;;;;;35.45;29.83;;;21.30;54.90;;;;;;4916150;29;20536;-73
2022/04/07 13:20:08;;;;;;;34.50;30.65;;;21.00;56.30;;;;;;4916848;29;20068;-71
2022/04/07 13:22:33;;;;;;;34.47;26.83;;;20.70;56.20;;;;;;4917185;29;20489;-71
2022/04/07 13:25:01;;;;;;;32.00;27.90;;;20.60;57.60;;;;;;4896976;29;20515;-71
2022/04/07 13:27:27;;;;;;;29.73;26.13;;;20.50;57.30;;;;;;4917592;29;20098;-71
2022/04/07 13:29:53;;;;;;;30.60;26.95;;;20.30;58.50;;;;;;4917184;29;20493;-71
2022/04/07 13:32:22;;;;;;;29.52;26.17;;;20.20;58.00;;;;;;4921234;29;20376;-71
2022/04/07 13:34:49;;;;;;;31.10;25.27;;;20.00;58.70;;;;;;4918343;29;20055;-71
2022/04/07 13:37:14;;;;;;;30.67;24.70;;;20.00;58.90;;;;;;4917083;29;20040;-71
2022/04/07 13:39:40;;;;;;;29.27;23.65;;;19.60;60.20;;;;;;4916559;29;20036;-71
2022/04/07 13:42:06;;;;;;;29.95;21.38;;;19.60;60.80;;;;;;4917342;29;20386;-71
2022/04/07 13:44:33;;;;;;;27.95;20.17;;;19.40;61.10;;;;;;4916877;29;20130;-79
2022/04/07 13:46:58;;;;;;;22.20;18.42;;;19.30;62.10;;;;;;4908254;29;20040;-76
2022/04/07 13:49:25;;;;;;;22.98;19.42;;;19.30;62.80;;;;;;4914500;29;20058;-77
2022/04/07 13:51:52;;;;;;;21.15;17.17;;;19.30;63.20;;;;;;4904858;29;20052;-70
2022/04/07 13:54:18;;;;;;;25.85;19.10;;;19.30;63.30;;;;;;4915345;29;20044;-70
2022/04/07 13:56:43;;;;;;;23.40;19.90;;;19.30;63.40;;;;;;4915038;29;20493;-70
2022/04/07 13:59:09;;;;;;;28.20;22.20;;;19.20;63.70;;;;;;4915877;29;20040;-70
2022/04/07 14:01:35;;;;;;;33.35;23.15;;;19.10;64.40;;;;;;4915685;29;20032;-69
2022/04/07 14:04:00;;;;;;;33.03;25.17;;;18.90;64.50;;;;;;4914915;29;20084;-69
2022/04/07 14:06:26;;;;;;;30.80;23.42;;;18.80;64.70;;;;;;4905495;29;20031;-70
2022/04/07 14:08:52;;;;;;;32.35;23.50;;;18.70;66.00;;;;;;4911633;29;20039;-69
2022/04/07 14:11:18;;;;;;;31.92;24.45;;;18.80;65.90;;;;;;4898971;29;20080;-70
2022/04/07 14:13:44;;;;;;;31.23;25.80;;;18.70;66.00;;;;;;4913712;29;20091;-70
2022/04/07 14:16:10;;;;;;;30.88;26.00;;;18.70;66.80;;;;;;4915723;29;20088;-70
2022/04/07 14:18:38;;;;;;;27.73;23.85;;;18.70;67.10;;;;;;4914641;29;20040;-70
2022/04/07 14:21:05;;;;;;;30.48;25.50;;;18.80;67.00;;;;;;4915182;29;20047;-70
2022/04/07 14:23:31;;;;;;;36.75;29.25;;;18.90;66.70;;;;;;4915882;29;20104;-70
2022/04/07 14:25:57;;;;;;;34.85;27.67;;;18.80;66.10;;;;;;4910865;29;20048;-70
2022/04/07 14:28:23;;;;;;;33.75;27.65;;;18.70;66.50;;;;;;4914137;29;20452;-70
2022/04/07 14:30:49;;;;;;;40.58;29.05;;;18.70;67.10;;;;;;4914951;29;20160;-70
2022/04/07 14:33:21;;;;;;;40.67;27.70;;;18.60;68.90;;;;;;4915360;29;20048;-70
2022/04/07 14:35:48;;;;;;;37.15;27.05;;;18.60;68.20;;;;;;4917688;29;20130;-71
2022/04/07 14:38:14;;;;;;;37.20;28.25;;;18.60;68.50;;;;;;4916329;29;20051;-77
2022/04/07 14:40:42;;;;;;;35.58;28.38;;;18.50;67.90;;;;;;4916203;29;20361;-77
2022/04/07 14:43:08;;;;;;;36.50;27.58;;;18.40;67.70;;;;;;4915278;29;20115;-71
2022/04/07 14:45:37;;;;;;;34.58;27.15;;;18.30;68.60;;;;;;4914839;29;20185;-70
2022/04/07 14:48:06;;;;;;;31.63;26.48;;;18.20;68.80;;;;;;4911647;29;20055;-71
2022/04/07 14:50:34;;;;;;;34.60;26.37;;;18.20;70.00;;;;;;4913819;29;20437;-70
2022/04/07 14:52:59;;;;;;;33.38;26.45;;;18.20;69.70;;;;;;4914295;29;20036;-70
2022/04/07 14:55:25;;;;;;;31.63;26.48;;;18.10;69.60;;;;;;4912280;29;20503;-71
2022/04/07 14:57:51;;;;;;;35.30;26.52;;;18.10;69.50;;;;;;4913074;29;20055;-70
2022/04/07 15:00:17;;;;;;;38.55;28.17;;;18.10;70.00;;;;;;4913542;29;20041;-70
2022/04/07 15:02:43;;;;;;;39.78;27.70;;;18.10;69.30;;;;;;4914590;29;20029;-71
2022/04/07 15:05:10;;;;;;;35.33;26.73;;;18.10;70.20;;;;;;4913440;29;20039;-75
2022/04/07 15:07:36;;;;;;;35.50;29.00;;;18.00;70.20;;;;;;4914021;29;20079;-75
2022/04/07 15:10:03;;;;;;;37.83;28.67;;;17.90;70.20;;;;;;4914012;29;20067;-75
2022/04/07 15:12:28;;;;;;;33.80;27.08;;;17.90;70.30;;;;;;4913817;29;20059;-75
2022/04/07 15:14:54;;;;;;;35.55;27.92;;;17.90;70.80;;;;;;4914911;29;20036;-75
2022/04/07 15:17:20;;;;;;;40.63;27.42;;;17.90;71.30;;;;;;4909043;29;20044;-75
2022/04/07 15:19:46;;;;;;;34.40;26.70;;;17.80;71.90;;;;;;4914245;29;20043;-75
2022/04/07 15:22:11;;;;;;;36.22;26.95;;;17.80;71.70;;;;;;4903127;29;20048;-75
2022/04/07 15:24:38;;;;;;;35.50;25.70;;;17.90;72.10;;;;;;4910088;29;20575;-75
2022/04/07 15:27:07;;;;;;;39.28;28.52;;;17.80;72.10;;;;;;4915251;29;20068;-75
2022/04/07 15:29:34;;;;;;;33.67;26.10;;;17.80;71.90;;;;;;4913773;29;20385;-75
2022/04/07 15:31:59;;;;;;;30.25;25.13;;;17.70;72.60;;;;;;4917236;29;20073;-75
2022/04/07 15:34:25;;;;;;;35.92;27.95;;;17.70;72.60;;;;;;4916771;29;20074;-75
2022/04/07 15:36:52;;;;;;;32.97;25.98;;;17.70;72.90;;;;;;4917933;29;20044;-76
2022/04/07 15:39:18;;;;;;;31.67;25.67;;;17.60;73.10;;;;;;4918261;29;20586;-76
2022/04/07 15:41:43;;;;;;;35.55;27.10;;;17.60;73.90;;;;;;4918283;29;20044;-75
2022/04/07 15:44:09;;;;;;;34.38;27.23;;;17.40;73.80;;;;;;4918209;29;20510;-76
2022/04/07 15:46:36;;;;;;;31.27;25.90;;;17.40;73.70;;;;;;4916794;29;20139;-76
2022/04/07 15:49:06;;;;;;;36.58;28.05;;;17.40;74.00;;;;;;4913675;29;20123;-77
2022/04/07 15:51:33;;;;;;;34.85;25.73;;;17.40;74.20;;;;;;4917020;29;20147;-76
2022/04/07 15:54:00;;;;;;;33.97;24.92;;;17.30;74.10;;;;;;4917732;29;20477;-75
2022/04/07 15:56:25;;;;;;;30.13;24.10;;;17.40;73.80;;;;;;4915652;29;20067;-75
2022/04/07 15:58:51;;;;;;;29.00;21.95;;;17.30;74.00;;;;;;4914712;29;20044;-70
2022/04/07 16:01:17;;;;;;;28.65;21.40;;;17.30;74.30;;;;;;4916027;29;20032;-71
2022/04/07 16:03:43;;;;;;;29.17;23.73;;;17.40;74.80;;;;;;4906498;29;20522;-71
2022/04/07 16:06:10;;;;;;;26.02;20.20;;;17.30;74.30;;;;;;4901467;29;20047;-76
2022/04/07 16:08:36;;;;;;;31.00;22.08;;;17.30;74.60;;;;;;4901999;29;20744;-71
2022/04/07 16:11:02;;;;;;;28.85;20.40;;;17.30;74.30;;;;;;4901569;29;20052;-70
2022/04/07 16:13:27;;;;;;;29.92;20.52;;;17.30;74.30;;;;;;4901303;29;20060;-70
2022/04/07 16:15:53;;;;;;;27.35;20.90;;;17.30;74.50;;;;;;4899113;29;20086;-71
2022/04/07 16:18:19;;;;;;;29.77;21.23;;;17.30;74.60;;;;;;4902258;29;20091;-70
2022/04/07 16:20:45;;;;;;;31.65;20.95;;;17.30;74.50;;;;;;4901644;29;20513;-70
2022/04/07 16:23:12;;;;;;;28.35;19.08;;;17.20;74.30;;;;;;4902256;29;20496;-71
2022/04/07 16:25:39;;;;;;;27.00;19.17;;;17.20;74.90;;;;;;4912330;29;20043;-71
2022/04/07 16:28:05;;;;;;;32.25;19.95;;;17.20;74.70;;;;;;4924359;29;20043;-71
2022/04/07 16:30:33;;;;;;;26.40;19.25;;;17.20;75.00;;;;;;4928292;29;20092;-70
2022/04/07 16:32:59;;;;;;;27.10;20.10;;;17.10;75.10;;;;;;4901296;29;20040;-71
2022/04/07 16:35:24;;;;;;;28.05;19.65;;;17.10;75.10;;;;;;4918494;29;20080;-71
2022/04/07 16:37:50;;;;;;;27.38;20.35;;;17.00;75.40;;;;;;4919251;29;20047;-71
2022/04/07 16:40:18;;;;;;;29.02;19.13;;;16.90;75.40;;;;;;4934241;29;20047;-71
2022/04/07 16:42:44;;;;;;;28.33;18.80;;;16.90;75.60;;;;;;4936986;29;20067;-71
2022/04/07 16:45:10;;;;;;;26.63;18.02;;;16.90;75.70;;;;;;4937037;29;20477;-71
2022/04/07 16:47:36;;;;;;;26.98;18.42;;;17.00;76.00;;;;;;4916905;29;20044;-72
2022/04/07 16:50:02;;;;;;;23.92;18.10;;;16.90;76.40;;;;;;4901602;29;20528;-71
2022/04/07 16:52:28;;;;;;;29.80;19.70;;;17.00;76.80;;;;;;4926999;29;20044;-70
2022/04/07 16:54:53;;;;;;;31.30;20.08;;;17.00;77.40;;;;;;4935663;29;20483;-71
2022/04/07 16:57:21;;;;;;;29.27;21.08;;;16.90;77.60;;;;;;4922066;29;20040;-70
2022/04/07 16:59:47;;;;;;;33.58;21.65;;;16.90;77.90;;;;;;4917366;29;20063;-71
2022/04/07 17:02:13;;;;;;;30.10;19.35;;;16.90;78.30;;;;;;4917733;29;20032;-71
2022/04/07 17:04:39;;;;;;;32.58;20.85;;;16.90;78.40;;;;;;4918586;29;20029;-70
2022/04/07 17:07:04;;;;;;;28.13;19.95;;;16.90;78.60;;;;;;4920740;29;20047;-70
2022/04/07 17:09:30;;;;;;;30.80;21.27;;;16.80;78.90;;;;;;4915865;29;20381;-70
2022/04/07 17:12:07;;;;;;;25.77;19.40;;;16.80;78.60;;;;;;4914482;29;20052;-70
2022/04/07 17:14:33;;;;;;;26.88;17.35;;;16.80;78.20;;;;;;4914346;29;20539;-70
2022/04/07 17:16:59;;;;;;;28.70;18.92;;;16.80;78.10;;;;;;4913359;29;20072;-78
2022/04/07 17:19:24;;;;;;;28.48;18.35;;;16.80;78.40;;;;;;4915420;29;20053;-71
2022/04/07 17:21:50;;;;;;;27.10;17.98;;;16.70;78.50;;;;;;4916032;29;20720;-71
2022/04/07 17:24:17;;;;;;;24.23;16.75;;;16.70;78.20;;;;;;4925311;29;20163;-76
2022/04/07 17:26:42;;;;;;;25.77;18.15;;;16.80;78.00;;;;;;4912728;29;20032;-76
2022/04/07 17:29:08;;;;;;;26.73;17.83;;;16.80;78.00;;;;;;4912727;29;20567;-70
2022/04/07 17:31:34;;;;;;;24.15;16.02;;;16.80;78.00;;;;;;4892934;29;20436;-71
2022/04/07 17:33:59;;;;;;;24.08;16.00;;;16.80;77.50;;;;;;4905293;29;20044;-70
2022/04/07 17:36:25;;;;;;;27.08;17.55;;;16.70;77.20;;;;;;4911695;29;20360;-76
2022/04/07 17:38:52;;;;;;;23.98;16.77;;;16.70;77.60;;;;;;4910355;29;20055;-71
2022/04/07 17:41:17;;;;;;;29.23;17.05;;;16.70;77.70;;;;;;4911572;29;20043;-71
2022/04/07 17:43:43;;;;;;;24.55;16.35;;;16.60;77.60;;;;;;4894754;29;20032;-70
2022/04/07 17:46:09;;;;;;;29.23;17.05;;;16.60;77.60;;;;;;4909492;29;20051;-71
2022/04/07 17:48:38;;;;;;;30.40;16.20;;;16.60;77.70;;;;;;4916679;29;20096;-70
2022/04/07 17:51:04;;;;;;;23.92;17.30;;;16.60;77.70;;;;;;4914946;29;20047;-71